createdAt,value
2019-06-10T00:01:18.029Z,2.12
2019-06-10T00:03:47.069Z,2.00
2019-06-10T00:06:16.744Z,2.00
2019-06-10T00:08:45.805Z,2.35
2019-06-10T00:11:21.254Z,2.20
2019-06-10T00:13:53.608Z,2.52
2019-06-10T00:16:22.665Z,2.55
2019-06-10T00:18:51.942Z,2.40
2019-06-10T00:21:23.873Z,2.60
2019-06-10T00:23:55.907Z,2.40
2019-06-10T00:26:26.332Z,2.37
2019-06-10T00:28:56.045Z,2.50
2019-06-10T00:31:25.656Z,2.50
2019-06-10T00:33:59.263Z,2.30
2019-06-10T00:36:30.723Z,2.17
2019-06-10T00:39:04.053Z,2.40
2019-06-10T00:41:34.816Z,2.30
2019-06-10T00:44:05.256Z,2.20
2019-06-10T00:46:36.115Z,2.35
2019-06-10T00:49:12.570Z,2.30
2019-06-10T00:51:41.478Z,2.57
2019-06-10T00:54:15.987Z,2.50
2019-06-10T00:56:47.154Z,2.43
2019-06-10T00:59:22.444Z,2.17
2019-06-10T01:01:51.431Z,2.30
2019-06-10T01:04:25.966Z,2.37
2019-06-10T01:06:55.019Z,1.97
2019-06-10T01:09:31.092Z,2.10
2019-06-10T01:12:01.202Z,2.03
2019-06-10T01:14:31.986Z,2.15
2019-06-10T01:17:01.345Z,2.37
2019-06-10T01:19:32.304Z,2.23
2019-06-10T01:22:01.704Z,2.22
2019-06-10T01:24:34.367Z,2.65
2019-06-10T01:27:03.458Z,2.57
2019-06-10T01:29:34.108Z,2.20
2019-06-10T01:32:05.189Z,2.40
2019-06-10T01:34:37.830Z,2.13
2019-06-10T01:37:09.379Z,2.30
2019-06-10T01:39:41.231Z,2.30
2019-06-10T01:42:13.994Z,2.43
2019-06-10T01:44:42.458Z,2.30
2019-06-10T01:47:14.654Z,2.70
2019-06-10T01:49:45.740Z,2.30
2019-06-10T01:52:18.474Z,2.23
2019-06-10T01:54:47.594Z,2.10
2019-06-10T01:57:21.880Z,2.20
2019-06-10T01:59:50.997Z,2.52
2019-06-10T02:02:23.838Z,2.62
2019-06-10T02:04:55.214Z,2.40
2019-06-10T02:07:24.749Z,2.33
2019-06-10T02:09:55.584Z,2.27
2019-06-10T02:12:25.303Z,2.47
2019-06-10T02:14:54.338Z,2.53
2019-06-10T02:17:24.102Z,2.40
2019-06-10T02:19:57.052Z,2.30
2019-06-10T02:22:27.349Z,2.23
2019-06-10T02:24:56.383Z,2.30
2019-06-10T02:27:28.791Z,2.37
2019-06-10T02:29:57.854Z,2.50
2019-06-10T02:32:32.908Z,2.30
2019-06-10T02:35:33.845Z,2.20
2019-06-10T02:37:55.116Z,2.70
2019-06-10T02:40:31.649Z,2.20
2019-06-10T02:42:58.406Z,2.33
2019-06-10T02:45:33.846Z,2.60
2019-06-10T02:47:58.104Z,2.40
2019-06-10T02:50:32.627Z,2.40
2019-06-10T02:52:59.744Z,2.20
2019-06-10T02:55:31.812Z,2.50
2019-06-10T02:58:04.004Z,2.80
2019-06-10T03:00:42.616Z,2.70
2019-06-10T03:03:07.597Z,2.20
2019-06-10T03:05:40.785Z,2.60
2019-06-10T03:08:07.966Z,2.20
2019-06-10T03:10:37.458Z,2.53
2019-06-10T03:13:07.661Z,2.60
2019-06-10T03:15:42.568Z,2.70
2019-06-10T03:18:12.908Z,2.47
2019-06-10T03:20:44.357Z,2.00
2019-06-10T03:23:13.410Z,2.83
2019-06-10T03:25:42.947Z,2.50
2019-06-10T03:28:12.115Z,2.53
2019-06-10T03:30:52.780Z,2.50
2019-06-10T03:33:14.542Z,2.80
2019-06-10T03:35:43.636Z,2.47
2019-06-10T03:38:12.699Z,2.50
2019-06-10T03:40:43.527Z,2.30
2019-06-10T03:43:14.355Z,2.63
2019-06-10T03:46:03.274Z,2.67
2019-06-10T03:48:39.966Z,2.60
2019-06-10T03:51:12.935Z,2.40
2019-06-10T03:53:47.819Z,2.27
2019-06-10T03:56:23.273Z,2.67
2019-06-10T03:58:52.091Z,2.87
2019-06-10T04:01:26.950Z,2.53
2019-06-10T04:04:02.329Z,2.20
2019-06-10T04:06:37.106Z,2.20
2019-06-10T04:09:07.116Z,2.30
2019-06-10T04:11:39.494Z,2.50
2019-06-10T04:14:09.472Z,2.50
2019-06-10T04:16:43.970Z,2.23
2019-06-10T04:19:17.626Z,2.60
2019-06-10T04:21:48.155Z,3.00
2019-06-10T04:24:17.656Z,2.50
2019-06-10T04:26:47.791Z,2.90
2019-06-10T04:29:22.587Z,2.70
2019-06-10T04:31:52.378Z,2.47
2019-06-10T04:34:25.467Z,2.57
2019-06-10T04:36:54.885Z,2.63
2019-06-10T04:39:26.092Z,2.40
2019-06-10T04:41:57.962Z,2.33
2019-06-10T04:44:29.342Z,2.30
2019-06-10T04:46:59.262Z,2.60
2019-06-10T04:49:32.773Z,2.57
2019-06-10T04:52:03.070Z,2.90
2019-06-10T04:54:33.273Z,2.97
2019-06-10T04:57:03.602Z,3.00
2019-06-10T04:59:33.596Z,2.70
2019-06-10T05:02:05.610Z,2.90
2019-06-10T05:04:38.520Z,2.67
2019-06-10T05:07:08.612Z,2.80
2019-06-10T05:09:42.104Z,2.93
2019-06-10T05:12:12.290Z,2.57
2019-06-10T05:14:43.291Z,2.60
2019-06-10T05:17:15.979Z,2.40
2019-06-10T05:19:45.426Z,2.30
2019-06-10T05:22:19.406Z,2.58
2019-06-10T05:24:48.649Z,2.33
2019-06-10T05:27:22.794Z,2.30
2019-06-10T05:29:52.790Z,2.58
2019-06-10T05:32:26.258Z,2.60
2019-06-10T05:34:55.710Z,2.30
2019-06-10T05:37:26.703Z,2.50
2019-06-10T05:39:56.256Z,2.50
2019-06-10T05:42:29.644Z,2.17
2019-06-10T05:45:02.961Z,2.45
2019-06-10T05:47:34.245Z,2.10
2019-06-10T05:50:04.695Z,2.15
2019-06-10T05:52:35.410Z,2.12
2019-06-10T05:55:05.550Z,2.70
2019-06-10T05:57:36.210Z,2.30
2019-06-10T06:00:14.623Z,2.65
2019-06-10T06:02:43.316Z,2.85
2019-06-10T06:05:13.872Z,2.15
2019-06-10T06:07:43.958Z,2.40
2019-06-10T06:10:16.418Z,2.50
2019-06-10T06:12:47.183Z,2.62
2019-06-10T06:15:22.116Z,2.50
2019-06-10T06:18:06.536Z,2.47
2019-06-10T06:20:25.100Z,2.45
2019-06-10T06:22:55.198Z,2.67
2019-06-10T06:25:24.309Z,2.62
2019-06-10T06:27:56.975Z,2.37
2019-06-10T06:30:26.153Z,2.62
2019-06-10T06:32:56.900Z,2.33
2019-06-10T06:35:26.730Z,2.33
2019-06-10T06:37:57.438Z,2.30
2019-06-10T06:40:27.176Z,2.15
2019-06-10T06:43:00.074Z,2.20
2019-06-10T06:45:34.391Z,2.30
2019-06-10T06:48:03.086Z,2.45
2019-06-10T06:50:34.286Z,2.40
2019-06-10T06:53:21.206Z,2.42
2019-06-10T06:55:38.451Z,2.27
2019-06-10T06:58:12.563Z,1.67
2019-06-10T07:01:00.530Z,1.90
2019-06-10T07:03:19.097Z,2.30
2019-06-10T07:05:48.879Z,2.05
2019-06-10T07:08:19.702Z,2.15
2019-06-10T07:10:52.278Z,2.40
2019-06-10T07:13:25.793Z,2.27
2019-06-10T07:15:55.695Z,1.90
2019-06-10T07:18:28.056Z,2.27
2019-06-10T07:20:57.447Z,1.75
2019-06-10T07:23:26.496Z,1.95
2019-06-10T07:25:56.239Z,2.10
2019-06-10T07:28:28.691Z,2.00
2019-06-10T07:30:58.458Z,2.37
2019-06-10T07:33:33.136Z,2.08
2019-06-10T07:36:03.241Z,2.08
2019-06-10T07:38:39.179Z,2.50
2019-06-10T07:41:06.381Z,2.52
2019-06-10T07:43:42.559Z,2.20
2019-06-10T07:46:13.347Z,2.08
2019-06-10T07:48:46.279Z,1.85
2019-06-10T07:51:13.189Z,1.90
2019-06-10T07:53:46.847Z,2.25
2019-06-10T07:56:16.094Z,2.08
2019-06-10T07:58:47.685Z,2.42
2019-06-10T08:01:17.454Z,2.05
2019-06-10T08:03:49.398Z,2.12
2019-06-10T08:06:22.595Z,2.10
2019-06-10T08:08:53.377Z,2.60
2019-06-10T08:11:23.450Z,2.30
2019-06-10T08:13:53.834Z,2.33
2019-06-10T08:16:25.154Z,2.33
2019-06-10T08:19:20.962Z,2.02
2019-06-10T08:21:26.520Z,2.10
2019-06-10T08:23:59.003Z,2.30
2019-06-10T08:26:29.316Z,1.90
2019-06-10T08:28:59.920Z,2.20
2019-06-10T08:31:33.349Z,2.00
2019-06-10T08:34:04.270Z,2.47
2019-06-10T08:36:34.543Z,2.40
2019-06-10T08:39:06.119Z,2.40
2019-06-10T08:41:38.365Z,2.10
2019-06-10T08:44:12.453Z,2.40
2019-06-10T08:46:43.754Z,2.22
2019-06-10T08:49:16.103Z,2.30
2019-06-10T08:51:49.976Z,2.17
2019-06-10T08:54:17.555Z,2.00
2019-06-10T08:56:50.723Z,2.08
2019-06-10T08:59:19.839Z,2.47
2019-06-10T09:01:56.860Z,2.15
2019-06-10T09:04:29.643Z,2.40
2019-06-10T09:07:03.880Z,2.00
2019-06-10T09:09:38.809Z,1.70
2019-06-10T09:12:07.987Z,2.12
2019-06-10T09:14:38.684Z,2.33
2019-06-10T09:17:12.348Z,2.27
2019-06-10T09:19:46.098Z,2.60
2019-06-10T09:22:13.930Z,2.00
2019-06-10T09:24:49.393Z,2.25
2019-06-10T09:27:18.222Z,2.52
2019-06-10T09:29:49.797Z,2.20
2019-06-10T09:32:19.278Z,2.35
2019-06-10T09:34:52.368Z,2.20
2019-06-10T09:37:19.030Z,1.95
2019-06-10T09:39:58.658Z,2.35
2019-06-10T09:42:24.044Z,2.00
2019-06-10T09:44:55.613Z,2.30
2019-06-10T09:47:24.748Z,2.60
2019-06-10T09:49:55.809Z,2.70
2019-06-10T09:52:27.321Z,2.05
2019-06-10T09:54:57.559Z,2.15
2019-06-10T09:57:26.625Z,2.45
2019-06-10T09:59:56.442Z,2.22
2019-06-10T10:02:27.629Z,2.20
2019-06-10T10:04:58.526Z,2.35
2019-06-10T10:07:28.321Z,2.72
2019-06-10T10:09:59.091Z,2.33
2019-06-10T10:12:32.760Z,2.67
2019-06-10T10:15:23.276Z,2.27
2019-06-10T10:17:35.486Z,2.45
2019-06-10T10:20:08.364Z,2.05
2019-06-10T10:22:37.416Z,2.75
2019-06-10T10:25:07.110Z,2.42
2019-06-10T10:27:37.791Z,2.95
2019-06-10T10:30:09.918Z,2.40
2019-06-10T10:32:39.460Z,2.47
2019-06-10T10:35:09.411Z,2.15
2019-06-10T10:37:40.166Z,2.50
2019-06-10T10:40:12.775Z,2.60
2019-06-10T10:42:50.426Z,2.17
2019-06-10T10:45:17.417Z,2.35
2019-06-10T10:47:47.005Z,2.22
2019-06-10T10:50:22.405Z,2.80
2019-06-10T10:52:52.278Z,2.80
2019-06-10T10:55:25.563Z,2.60
2019-06-10T10:57:55.850Z,2.58
2019-06-10T11:00:37.198Z,2.55
2019-06-10T11:03:02.880Z,1.90
2019-06-10T11:05:36.486Z,2.30
2019-06-10T11:08:07.653Z,2.10
2019-06-10T11:10:36.880Z,2.20
2019-06-10T11:13:08.003Z,2.60
2019-06-10T11:15:40.181Z,2.08
2019-06-10T11:18:09.422Z,2.30
2019-06-10T11:20:39.438Z,2.12
2019-06-10T11:23:08.446Z,2.20
2019-06-10T11:25:43.027Z,2.25
2019-06-10T11:28:12.217Z,2.27
2019-06-10T11:30:42.602Z,2.17
2019-06-10T11:33:11.918Z,1.98
2019-06-10T11:35:42.814Z,1.92
2019-06-10T11:38:16.355Z,2.00
2019-06-10T11:40:45.454Z,2.27
2019-06-10T11:43:15.273Z,2.20
2019-06-10T11:45:51.180Z,2.12
2019-06-10T11:48:18.803Z,2.00
2019-06-10T11:50:49.211Z,2.10
2019-06-10T11:53:23.694Z,2.10
2019-06-10T11:55:56.564Z,2.33
2019-06-10T11:58:25.919Z,2.22
2019-06-10T12:00:58.804Z,2.20
2019-06-10T12:03:27.704Z,2.27
2019-06-10T12:06:02.011Z,2.27
2019-06-10T12:08:33.001Z,2.30
2019-06-10T12:11:02.627Z,2.85
2019-06-10T12:13:34.954Z,2.85
2019-06-10T12:17:05.136Z,2.47
2019-06-10T12:18:35.053Z,2.42
2019-06-10T12:21:04.251Z,2.47
2019-06-10T12:23:33.821Z,2.37
2019-06-10T12:26:04.817Z,2.75
2019-06-10T12:28:37.525Z,2.30
2019-06-10T12:31:07.521Z,2.60
2019-06-10T12:33:39.850Z,2.25
2019-06-10T12:36:12.601Z,2.40
2019-06-10T12:38:43.346Z,2.67
2019-06-10T12:41:15.718Z,2.37
2019-06-10T12:43:46.022Z,2.62
2019-06-10T12:46:16.129Z,2.50
2019-06-10T12:48:46.025Z,2.50
2019-06-10T12:51:16.403Z,2.75
2019-06-10T12:53:46.776Z,2.27
2019-06-10T12:56:17.589Z,2.45
2019-06-10T12:58:50.329Z,2.42
2019-06-10T13:01:22.511Z,2.60
2019-06-10T13:03:53.619Z,2.60
2019-06-10T13:06:24.762Z,2.72
2019-06-10T13:08:58.069Z,2.58
2019-06-10T13:11:33.389Z,2.60
2019-06-10T13:14:04.007Z,2.50
2019-06-10T13:16:34.338Z,2.50
2019-06-10T13:19:06.144Z,2.58
2019-06-10T13:21:35.071Z,2.85
2019-06-10T13:24:07.959Z,2.40
2019-06-10T13:26:42.988Z,2.47
2019-06-10T13:29:16.897Z,2.40
2019-06-10T13:31:46.093Z,2.47
2019-06-10T13:34:15.107Z,2.42
2019-06-10T13:36:44.394Z,2.80
2019-06-10T13:39:14.115Z,2.72
2019-06-10T13:41:44.091Z,2.60
2019-06-10T13:44:16.480Z,2.80
2019-06-10T13:46:44.754Z,2.60
2019-06-10T13:49:15.666Z,2.70
2019-06-10T13:51:48.225Z,3.35
2019-06-10T13:54:18.236Z,2.72
2019-06-10T13:56:52.714Z,2.50
2019-06-10T13:59:22.972Z,2.52
2019-06-10T14:01:53.725Z,2.60
2019-06-10T14:04:26.040Z,2.70
2019-06-10T14:09:32.873Z,2.42
2019-06-10T14:12:08.052Z,2.33
2019-06-10T14:14:38.958Z,2.20
2019-06-10T14:17:15.871Z,2.52
2019-06-10T14:19:43.223Z,2.72
2019-06-10T14:22:16.023Z,2.50
2019-06-10T14:24:43.671Z,2.50
2019-06-10T14:27:20.469Z,2.58
2019-06-10T14:29:46.642Z,2.70
2019-06-10T14:32:18.883Z,2.58
2019-06-10T14:34:52.673Z,2.37
2019-06-10T14:37:35.799Z,2.58
2019-06-10T14:39:58.485Z,2.45
2019-06-10T14:42:28.684Z,3.40
2019-06-10T14:44:57.992Z,2.70
2019-06-10T14:47:27.989Z,2.50
2019-06-10T14:49:57.057Z,2.67
2019-06-10T14:52:26.609Z,2.92
2019-06-10T14:54:57.730Z,2.47
2019-06-10T14:57:28.579Z,2.60
2019-06-10T14:59:57.590Z,2.55
2019-06-10T15:02:29.750Z,2.60
2019-06-10T15:05:02.770Z,3.02
2019-06-10T15:07:35.314Z,2.92
2019-06-10T15:10:07.559Z,3.35
2019-06-10T15:12:37.768Z,3.12
2019-06-10T15:15:08.212Z,2.90
2019-06-10T15:17:42.875Z,2.90
2019-06-10T15:20:11.685Z,2.65
2019-06-10T15:22:42.997Z,3.05
2019-06-10T15:25:14.227Z,2.90
2019-06-10T15:27:45.646Z,2.70
2019-06-10T15:30:23.659Z,2.90
2019-06-10T15:32:47.479Z,3.27
2019-06-10T15:35:19.832Z,3.02
2019-06-10T15:37:47.254Z,2.70
2019-06-10T15:40:17.027Z,2.98
2019-06-10T15:42:48.770Z,3.12
2019-06-10T15:45:19.931Z,2.92
2019-06-10T15:47:54.094Z,3.35
2019-06-10T15:50:24.467Z,3.00
2019-06-10T15:52:54.990Z,3.05
2019-06-10T15:55:49.253Z,3.37
2019-06-10T15:57:56.770Z,2.67
2019-06-10T16:00:29.261Z,2.85
2019-06-10T16:02:59.541Z,2.87
2019-06-10T16:05:32.228Z,2.70
2019-06-10T16:08:03.127Z,2.67
2019-06-10T16:10:33.462Z,2.70
2019-06-10T16:13:03.410Z,3.05
2019-06-10T16:15:34.062Z,2.83
2019-06-10T16:18:06.220Z,2.75
2019-06-10T16:20:39.156Z,3.00
2019-06-10T16:23:12.050Z,2.90
2019-06-10T16:25:42.639Z,2.80
2019-06-10T16:28:12.852Z,2.65
2019-06-10T16:30:44.396Z,3.00
2019-06-10T16:33:16.972Z,3.20
2019-06-10T16:35:49.426Z,3.10
2019-06-10T16:38:19.113Z,3.35
2019-06-10T16:40:49.549Z,3.52
2019-06-10T16:43:19.681Z,3.42
2019-06-10T16:45:52.691Z,3.58
2019-06-10T16:48:25.507Z,3.72
2019-06-10T16:50:55.762Z,4.05
2019-06-10T16:53:28.906Z,4.17
2019-06-10T16:55:57.189Z,4.50
2019-06-10T16:58:27.979Z,4.60
2019-06-10T17:00:56.969Z,4.35
2019-06-10T17:03:27.246Z,4.78
2019-06-10T17:05:58.178Z,5.12
2019-06-10T17:08:33.160Z,4.92
2019-06-10T17:11:03.351Z,4.80
2019-06-10T17:13:33.005Z,5.35
2019-06-10T17:16:03.415Z,5.20
2019-06-10T17:18:37.344Z,5.28
2019-06-10T17:21:07.369Z,5.12
2019-06-10T17:23:38.053Z,6.08
2019-06-10T17:26:07.610Z,4.75
2019-06-10T17:28:39.799Z,4.72
2019-06-10T17:31:09.880Z,4.70
2019-06-10T17:33:42.877Z,4.03
2019-06-10T17:36:13.001Z,4.65
2019-06-10T17:38:43.018Z,4.47
2019-06-10T17:41:13.313Z,4.97
2019-06-10T17:43:46.602Z,5.17
2019-06-10T17:46:17.372Z,4.67
2019-06-10T17:48:47.951Z,4.47
2019-06-10T17:51:17.535Z,4.50
2019-06-10T17:53:52.971Z,4.62
2019-06-10T17:56:26.389Z,4.97
2019-06-10T17:58:58.046Z,5.42
2019-06-10T18:01:27.268Z,5.22
2019-06-10T18:03:57.483Z,4.78
2019-06-10T18:06:27.885Z,5.10
2019-06-10T18:08:57.302Z,5.30
2019-06-10T18:11:30.005Z,5.45
2019-06-10T18:14:02.689Z,5.42
2019-06-10T18:16:36.359Z,4.95
2019-06-10T18:19:04.249Z,5.12
2019-06-10T18:21:35.970Z,4.90
2019-06-10T18:24:08.535Z,5.12
2019-06-10T18:26:37.920Z,4.55
2019-06-10T18:29:09.351Z,5.17
2019-06-10T18:31:39.561Z,4.55
2019-06-10T18:34:08.698Z,5.08
2019-06-10T18:36:37.814Z,5.37
2019-06-10T18:39:07.519Z,5.15
2019-06-10T18:41:37.432Z,5.03
2019-06-10T18:44:19.876Z,5.08
2019-06-10T18:46:40.141Z,5.20
2019-06-10T18:49:13.245Z,5.12
2019-06-10T18:51:44.435Z,5.25
2019-06-10T18:54:13.382Z,4.92
2019-06-10T18:56:44.358Z,5.20
2019-06-10T18:59:21.110Z,5.62
2019-06-10T19:01:49.662Z,4.85
2019-06-10T19:04:22.495Z,4.75
2019-06-10T19:06:52.717Z,5.47
2019-06-10T19:09:24.642Z,5.40
2019-06-10T19:11:55.056Z,5.37
2019-06-10T19:14:25.958Z,6.25
2019-06-10T19:16:56.033Z,5.97
2019-06-10T19:19:25.122Z,6.60
2019-06-10T19:22:05.487Z,6.40
2019-06-10T19:24:26.458Z,6.37
2019-06-10T19:27:02.877Z,5.72
2019-06-10T19:29:39.181Z,5.33
2019-06-10T19:32:07.008Z,5.40
2019-06-10T19:34:37.381Z,5.33
2019-06-10T19:37:07.023Z,4.95
2019-06-10T19:39:46.133Z,4.50
2019-06-10T19:42:13.109Z,4.70
2019-06-10T19:44:45.581Z,3.98
2019-06-10T19:47:14.726Z,3.95
2019-06-10T19:49:45.007Z,4.28
2019-06-10T19:52:15.121Z,4.53
2019-06-10T19:54:47.221Z,4.60
2019-06-10T19:57:21.857Z,4.20
2019-06-10T20:00:05.038Z,3.40
2019-06-10T20:02:22.614Z,4.00
2019-06-10T20:04:54.582Z,3.80
2019-06-10T20:07:27.176Z,4.20
2019-06-10T20:09:56.154Z,4.75
2019-06-10T20:12:25.161Z,4.35
2019-06-10T20:14:56.884Z,4.42
2019-06-10T20:17:26.121Z,4.35
2019-06-10T20:19:56.573Z,4.30
2019-06-10T20:22:29.278Z,4.97
2019-06-10T20:24:59.689Z,3.95
2019-06-10T20:27:30.284Z,4.95
2019-06-10T20:30:09.978Z,4.60
2019-06-10T20:32:40.352Z,4.20
2019-06-10T20:35:09.234Z,4.75
2019-06-10T20:37:43.982Z,5.05
2019-06-10T20:40:11.946Z,5.28
2019-06-10T20:42:42.294Z,4.70
2019-06-10T20:45:13.141Z,5.35
2019-06-10T20:47:44.838Z,5.40
2019-06-10T20:50:14.194Z,5.47
2019-06-10T20:52:45.689Z,5.30
2019-06-10T20:55:14.097Z,5.80
2019-06-10T20:57:58.998Z,5.35
2019-06-10T21:00:25.697Z,5.72
2019-06-10T21:02:53.765Z,5.67
2019-06-10T21:05:23.827Z,5.72
2019-06-10T21:07:57.895Z,5.70
2019-06-10T21:10:29.253Z,6.10
2019-06-10T21:13:03.016Z,5.67
2019-06-10T21:15:33.387Z,4.83
2019-06-10T21:18:02.751Z,5.50
2019-06-10T21:20:33.271Z,6.12
2019-06-10T21:23:03.028Z,5.42
2019-06-10T21:25:33.002Z,5.22
2019-06-10T21:28:05.959Z,5.28
2019-06-10T21:30:41.595Z,5.45
2019-06-10T21:33:10.241Z,5.80
2019-06-10T21:35:42.457Z,5.95
2019-06-10T21:38:14.455Z,6.00
2019-06-10T21:40:48.121Z,5.58
2019-06-10T21:43:22.387Z,5.92
2019-06-10T21:45:57.194Z,5.05
2019-06-10T21:48:23.006Z,5.20
2019-06-10T21:50:55.905Z,5.12
2019-06-10T21:53:28.375Z,5.12
2019-06-10T21:55:58.202Z,5.28
2019-06-10T21:58:28.812Z,5.28
2019-06-10T22:01:09.786Z,5.45
2019-06-10T22:03:32.320Z,5.12
2019-06-10T22:06:03.333Z,5.62
2019-06-10T22:08:35.470Z,6.37
2019-06-10T22:11:05.364Z,5.50
2019-06-10T22:13:38.347Z,6.15
2019-06-10T22:16:08.221Z,5.78
2019-06-10T22:18:38.069Z,6.33
2019-06-10T22:21:08.267Z,6.28
2019-06-10T22:23:38.736Z,5.95
2019-06-10T22:26:13.042Z,5.90
2019-06-10T22:28:43.374Z,6.20
2019-06-10T22:31:22.291Z,6.33
2019-06-10T22:33:45.274Z,7.00
2019-06-10T22:36:14.678Z,7.10
2019-06-10T22:38:47.883Z,7.40
2019-06-10T22:41:16.959Z,7.67
2019-06-10T22:43:51.433Z,7.60
2019-06-10T22:46:24.710Z,8.25
2019-06-10T22:48:55.268Z,7.93
2019-06-10T22:51:27.823Z,6.28
2019-06-10T22:53:58.585Z,5.33
2019-06-10T22:56:31.503Z,5.83
2019-06-10T22:59:03.116Z,6.05
2019-06-10T23:01:37.967Z,5.87
2019-06-10T23:04:04.554Z,5.97
2019-06-10T23:06:35.033Z,5.30
2019-06-10T23:09:05.810Z,5.60
2019-06-10T23:11:35.111Z,6.33
2019-06-10T23:14:06.717Z,6.37
2019-06-10T23:16:35.732Z,5.70
2019-06-10T23:19:05.380Z,6.80
2019-06-10T23:21:36.295Z,6.60
2019-06-10T23:24:05.351Z,7.63
2019-06-10T23:26:35.606Z,7.50
2019-06-10T23:29:06.505Z,7.00
2019-06-10T23:31:48.564Z,6.60
2019-06-10T23:34:11.003Z,6.67
2019-06-10T23:36:43.070Z,6.67
2019-06-10T23:39:14.178Z,6.12
2019-06-10T23:41:43.459Z,6.20
2019-06-10T23:44:16.067Z,6.60
2019-06-10T23:46:45.092Z,6.37
2019-06-10T23:49:17.050Z,6.25
2019-06-10T23:51:47.612Z,6.15
2019-06-10T23:54:18.629Z,6.28
2019-06-10T23:56:52.768Z,6.15
2019-06-10T23:59:22.660Z,6.20
